sensor_id;sensor_type;location;lat;lon;timestamp;P1;durP1;ratioP1;P2;durP2;ratioP2
74926;SDS011;63488;48.092;-1.640;2022-12-07T00:01:32;15.35;;;11.02;;
74926;SDS011;63488;48.092;-1.640;2022-12-07T00:03:58;14.30;;;9.90;;
74926;SDS011;63488;48.092;-1.640;2022-12-07T00:06:32;14.77;;;10.15;;
74926;SDS011;63488;48.092;-1.640;2022-12-07T00:08:58;15.23;;;10.02;;
74926;SDS011;63488;48.092;-1.640;2022-12-07T00:11:23;13.23;;;9.30;;
74926;SDS011;63488;48.092;-1.640;2022-12-07T00:13:52;12.52;;;9.32;;
74926;SDS011;63488;48.092;-1.640;2022-12-07T00:16:19;13.18;;;9.82;;
74926;SDS011;63488;48.092;-1.640;2022-12-07T00:18:45;13.45;;;9.55;;
74926;SDS011;63488;48.092;-1.640;2022-12-07T00:21:14;14.90;;;10.15;;
74926;SDS011;63488;48.092;-1.640;2022-12-07T00:23:40;15.00;;;9.88;;
74926;SDS011;63488;48.092;-1.640;2022-12-07T00:26:07;14.60;;;10.10;;
74926;SDS011;63488;48.092;-1.640;2022-12-07T00:28:33;14.57;;;10.10;;
74926;SDS011;63488;48.092;-1.640;2022-12-07T00:31:09;13.48;;;9.45;;
74926;SDS011;63488;48.092;-1.640;2022-12-07T00:33:35;14.05;;;9.68;;
74926;SDS011;63488;48.092;-1.640;2022-12-07T00:36:01;15.98;;;10.82;;
74926;SDS011;63488;48.092;-1.640;2022-12-07T00:38:29;18.33;;;12.75;;
74926;SDS011;63488;48.092;-1.640;2022-12-07T00:41:08;22.60;;;17.63;;
74926;SDS011;63488;48.092;-1.640;2022-12-07T00:43:34;16.40;;;10.73;;
74926;SDS011;63488;48.092;-1.640;2022-12-07T00:45:59;14.73;;;10.10;;
74926;SDS011;63488;48.092;-1.640;2022-12-07T00:48:25;14.40;;;10.27;;
74926;SDS011;63488;48.092;-1.640;2022-12-07T00:50:50;15.73;;;10.50;;
74926;SDS011;63488;48.092;-1.640;2022-12-07T00:53:16;16.27;;;10.63;;
74926;SDS011;63488;48.092;-1.640;2022-12-07T00:55:42;16.13;;;10.95;;
74926;SDS011;63488;48.092;-1.640;2022-12-07T00:58:07;16.60;;;10.77;;
74926;SDS011;63488;48.092;-1.640;2022-12-07T01:00:33;14.63;;;10.02;;
74926;SDS011;63488;48.092;-1.640;2022-12-07T01:03:00;14.05;;;9.88;;
74926;SDS011;63488;48.092;-1.640;2022-12-07T01:05:25;17.42;;;10.90;;
74926;SDS011;63488;48.092;-1.640;2022-12-07T01:07:50;16.02;;;10.57;;
74926;SDS011;63488;48.092;-1.640;2022-12-07T01:10:16;15.38;;;10.85;;
74926;SDS011;63488;48.092;-1.640;2022-12-07T01:12:41;15.43;;;10.23;;
74926;SDS011;63488;48.092;-1.640;2022-12-07T01:15:07;15.15;;;10.75;;
74926;SDS011;63488;48.092;-1.640;2022-12-07T01:17:32;15.27;;;10.55;;
74926;SDS011;63488;48.092;-1.640;2022-12-07T01:19:58;15.35;;;10.75;;
74926;SDS011;63488;48.092;-1.640;2022-12-07T01:22:23;13.05;;;9.85;;
74926;SDS011;63488;48.092;-1.640;2022-12-07T01:24:48;15.48;;;10.82;;
74926;SDS011;63488;48.092;-1.640;2022-12-07T01:27:14;17.02;;;11.23;;
74926;SDS011;63488;48.092;-1.640;2022-12-07T01:29:39;15.88;;;11.50;;
74926;SDS011;63488;48.092;-1.640;2022-12-07T01:32:04;15.38;;;10.82;;
74926;SDS011;63488;48.092;-1.640;2022-12-07T01:34:30;14.98;;;10.70;;
74926;SDS011;63488;48.092;-1.640;2022-12-07T01:36:55;15.45;;;10.77;;
74926;SDS011;63488;48.092;-1.640;2022-12-07T01:39:21;15.82;;;11.18;;
74926;SDS011;63488;48.092;-1.640;2022-12-07T01:41:46;13.82;;;10.45;;
74926;SDS011;63488;48.092;-1.640;2022-12-07T01:44:13;15.07;;;10.63;;
74926;SDS011;63488;48.092;-1.640;2022-12-07T01:46:39;15.50;;;10.82;;
74926;SDS011;63488;48.092;-1.640;2022-12-07T01:49:06;15.05;;;11.20;;
74926;SDS011;63488;48.092;-1.640;2022-12-07T01:51:33;15.90;;;10.70;;
74926;SDS011;63488;48.092;-1.640;2022-12-07T01:53:59;17.33;;;11.50;;
74926;SDS011;63488;48.092;-1.640;2022-12-07T01:56:26;14.60;;;10.70;;
74926;SDS011;63488;48.092;-1.640;2022-12-07T01:58:52;17.35;;;11.65;;
74926;SDS011;63488;48.092;-1.640;2022-12-07T02:01:18;14.50;;;11.15;;
74926;SDS011;63488;48.092;-1.640;2022-12-07T02:03:43;16.38;;;11.10;;
74926;SDS011;63488;48.092;-1.640;2022-12-07T02:06:10;16.55;;;11.65;;
74926;SDS011;63488;48.092;-1.640;2022-12-07T02:08:36;15.25;;;11.85;;
74926;SDS011;63488;48.092;-1.640;2022-12-07T02:11:02;14.32;;;10.93;;
74926;SDS011;63488;48.092;-1.640;2022-12-07T02:13:30;15.68;;;11.00;;
74926;SDS011;63488;48.092;-1.640;2022-12-07T02:21:12;16.27;;;11.43;;
74926;SDS011;63488;48.092;-1.640;2022-12-07T02:23:40;16.80;;;11.25;;
74926;SDS011;63488;48.092;-1.640;2022-12-07T02:31:12;15.18;;;10.77;;
74926;SDS011;63488;48.092;-1.640;2022-12-07T02:33:41;15.68;;;10.63;;
74926;SDS011;63488;48.092;-1.640;2022-12-07T02:36:08;16.67;;;11.13;;
74926;SDS011;63488;48.092;-1.640;2022-12-07T02:38:40;15.75;;;11.50;;
74926;SDS011;63488;48.092;-1.640;2022-12-07T02:46:03;16.42;;;11.30;;
74926;SDS011;63488;48.092;-1.640;2022-12-07T02:48:30;15.25;;;11.35;;
74926;SDS011;63488;48.092;-1.640;2022-12-07T02:50:56;15.70;;;10.90;;
74926;SDS011;63488;48.092;-1.640;2022-12-07T02:53:29;15.70;;;10.85;;
74926;SDS011;63488;48.092;-1.640;2022-12-07T02:55:54;15.63;;;11.35;;
74926;SDS011;63488;48.092;-1.640;2022-12-07T02:58:26;15.95;;;11.07;;
74926;SDS011;63488;48.092;-1.640;2022-12-07T03:01:09;15.25;;;10.88;;
74926;SDS011;63488;48.092;-1.640;2022-12-07T03:03:36;14.80;;;10.15;;
74926;SDS011;63488;48.092;-1.640;2022-12-07T03:06:10;15.07;;;10.93;;
74926;SDS011;63488;48.092;-1.640;2022-12-07T03:11:04;16.23;;;11.57;;
74926;SDS011;63488;48.092;-1.640;2022-12-07T03:16:16;13.23;;;10.05;;
74926;SDS011;63488;48.092;-1.640;2022-12-07T03:18:52;16.00;;;11.57;;
74926;SDS011;63488;48.092;-1.640;2022-12-07T03:21:20;15.07;;;10.98;;
74926;SDS011;63488;48.092;-1.640;2022-12-07T03:23:48;17.52;;;11.65;;
74926;SDS011;63488;48.092;-1.640;2022-12-07T03:26:15;15.05;;;10.95;;
74926;SDS011;63488;48.092;-1.640;2022-12-07T03:28:44;15.43;;;11.23;;
74926;SDS011;63488;48.092;-1.640;2022-12-07T03:31:17;17.02;;;11.15;;
74926;SDS011;63488;48.092;-1.640;2022-12-07T03:36:16;15.48;;;10.32;;
74926;SDS011;63488;48.092;-1.640;2022-12-07T03:38:50;16.92;;;10.13;;
74926;SDS011;63488;48.092;-1.640;2022-12-07T03:41:19;17.05;;;11.02;;
74926;SDS011;63488;48.092;-1.640;2022-12-07T03:43:46;15.95;;;10.48;;
74926;SDS011;63488;48.092;-1.640;2022-12-07T03:46:17;15.85;;;10.60;;
74926;SDS011;63488;48.092;-1.640;2022-12-07T03:54:23;14.52;;;10.07;;
74926;SDS011;63488;48.092;-1.640;2022-12-07T03:56:50;15.65;;;11.57;;
74926;SDS011;63488;48.092;-1.640;2022-12-07T03:59:16;14.75;;;10.52;;
74926;SDS011;63488;48.092;-1.640;2022-12-07T04:01:45;14.02;;;10.32;;
74926;SDS011;63488;48.092;-1.640;2022-12-07T04:04:16;14.35;;;9.95;;
74926;SDS011;63488;48.092;-1.640;2022-12-07T04:06:41;14.95;;;10.07;;
74926;SDS011;63488;48.092;-1.640;2022-12-07T04:09:07;14.20;;;10.25;;
74926;SDS011;63488;48.092;-1.640;2022-12-07T04:11:32;17.25;;;11.13;;
74926;SDS011;63488;48.092;-1.640;2022-12-07T04:13:57;15.63;;;10.07;;
74926;SDS011;63488;48.092;-1.640;2022-12-07T04:16:41;15.15;;;10.30;;
74926;SDS011;63488;48.092;-1.640;2022-12-07T04:19:06;15.38;;;10.10;;
74926;SDS011;63488;48.092;-1.640;2022-12-07T04:21:32;15.35;;;10.48;;
74926;SDS011;63488;48.092;-1.640;2022-12-07T04:23:57;13.82;;;10.27;;
74926;SDS011;63488;48.092;-1.640;2022-12-07T04:26:22;14.77;;;9.77;;
74926;SDS011;63488;48.092;-1.640;2022-12-07T04:28:48;15.00;;;10.27;;
74926;SDS011;63488;48.092;-1.640;2022-12-07T04:31:13;13.25;;;10.25;;
74926;SDS011;63488;48.092;-1.640;2022-12-07T04:33:38;14.43;;;9.93;;
74926;SDS011;63488;48.092;-1.640;2022-12-07T04:36:04;13.80;;;9.45;;
74926;SDS011;63488;48.092;-1.640;2022-12-07T04:38:30;13.77;;;10.23;;
74926;SDS011;63488;48.092;-1.640;2022-12-07T04:40:55;14.70;;;10.25;;
74926;SDS011;63488;48.092;-1.640;2022-12-07T04:43:20;16.17;;;10.50;;
74926;SDS011;63488;48.092;-1.640;2022-12-07T04:45:46;13.30;;;9.75;;
74926;SDS011;63488;48.092;-1.640;2022-12-07T04:48:12;15.32;;;10.50;;
74926;SDS011;63488;48.092;-1.640;2022-12-07T04:50:37;14.80;;;10.00;;
74926;SDS011;63488;48.092;-1.640;2022-12-07T04:53:03;14.30;;;10.02;;
74926;SDS011;63488;48.092;-1.640;2022-12-07T04:55:28;15.93;;;9.95;;
74926;SDS011;63488;48.092;-1.640;2022-12-07T04:57:54;14.48;;;10.23;;
74926;SDS011;63488;48.092;-1.640;2022-12-07T05:00:19;14.93;;;10.10;;
74926;SDS011;63488;48.092;-1.640;2022-12-07T05:02:44;15.07;;;9.95;;
74926;SDS011;63488;48.092;-1.640;2022-12-07T05:05:10;14.75;;;10.00;;
74926;SDS011;63488;48.092;-1.640;2022-12-07T05:07:35;13.13;;;9.27;;
74926;SDS011;63488;48.092;-1.640;2022-12-07T05:10:00;14.00;;;9.88;;
74926;SDS011;63488;48.092;-1.640;2022-12-07T05:12:26;11.80;;;8.50;;
74926;SDS011;63488;48.092;-1.640;2022-12-07T05:14:51;11.60;;;8.70;;
74926;SDS011;63488;48.092;-1.640;2022-12-07T05:17:16;13.55;;;9.65;;
74926;SDS011;63488;48.092;-1.640;2022-12-07T05:19:42;12.90;;;9.50;;
74926;SDS011;63488;48.092;-1.640;2022-12-07T05:22:07;13.00;;;9.38;;
74926;SDS011;63488;48.092;-1.640;2022-12-07T05:24:32;17.38;;;9.90;;
74926;SDS011;63488;48.092;-1.640;2022-12-07T05:26:58;17.08;;;10.02;;
74926;SDS011;63488;48.092;-1.640;2022-12-07T05:29:23;13.50;;;9.80;;
74926;SDS011;63488;48.092;-1.640;2022-12-07T05:31:49;14.65;;;9.43;;
74926;SDS011;63488;48.092;-1.640;2022-12-07T05:34:14;14.15;;;9.80;;
74926;SDS011;63488;48.092;-1.640;2022-12-07T05:36:39;12.98;;;9.32;;
74926;SDS011;63488;48.092;-1.640;2022-12-07T05:39:05;13.80;;;9.10;;
74926;SDS011;63488;48.092;-1.640;2022-12-07T05:41:30;13.40;;;9.05;;
74926;SDS011;63488;48.092;-1.640;2022-12-07T05:44:14;15.00;;;9.85;;
74926;SDS011;63488;48.092;-1.640;2022-12-07T05:46:40;14.18;;;9.20;;
74926;SDS011;63488;48.092;-1.640;2022-12-07T05:49:05;16.35;;;9.88;;
74926;SDS011;63488;48.092;-1.640;2022-12-07T05:51:30;13.10;;;9.52;;
74926;SDS011;63488;48.092;-1.640;2022-12-07T05:53:56;14.52;;;9.77;;
74926;SDS011;63488;48.092;-1.640;2022-12-07T05:56:21;15.13;;;9.80;;
74926;SDS011;63488;48.092;-1.640;2022-12-07T05:58:46;14.75;;;10.20;;
74926;SDS011;63488;48.092;-1.640;2022-12-07T06:01:30;15.70;;;10.32;;
74926;SDS011;63488;48.092;-1.640;2022-12-07T06:03:56;12.77;;;9.20;;
74926;SDS011;63488;48.092;-1.640;2022-12-07T06:06:21;13.00;;;9.23;;
74926;SDS011;63488;48.092;-1.640;2022-12-07T06:08:46;13.52;;;9.82;;
74926;SDS011;63488;48.092;-1.640;2022-12-07T06:11:12;14.43;;;9.68;;
74926;SDS011;63488;48.092;-1.640;2022-12-07T06:13:56;13.90;;;9.70;;
74926;SDS011;63488;48.092;-1.640;2022-12-07T06:16:21;13.50;;;9.32;;
74926;SDS011;63488;48.092;-1.640;2022-12-07T06:18:46;15.35;;;9.27;;
74926;SDS011;63488;48.092;-1.640;2022-12-07T06:21:12;14.13;;;9.27;;
74926;SDS011;63488;48.092;-1.640;2022-12-07T06:23:37;14.05;;;9.77;;
74926;SDS011;63488;48.092;-1.640;2022-12-07T06:26:02;13.52;;;9.23;;
74926;SDS011;63488;48.092;-1.640;2022-12-07T06:28:28;12.85;;;9.13;;
74926;SDS011;63488;48.092;-1.640;2022-12-07T06:31:00;13.60;;;9.15;;
74926;SDS011;63488;48.092;-1.640;2022-12-07T06:33:26;13.45;;;8.93;;
74926;SDS011;63488;48.092;-1.640;2022-12-07T06:35:51;13.27;;;9.30;;
74926;SDS011;63488;48.092;-1.640;2022-12-07T06:38:17;12.77;;;9.40;;
74926;SDS011;63488;48.092;-1.640;2022-12-07T06:40:42;13.88;;;8.68;;
74926;SDS011;63488;48.092;-1.640;2022-12-07T06:43:08;14.68;;;9.98;;
74926;SDS011;63488;48.092;-1.640;2022-12-07T06:45:33;14.65;;;9.82;;
74926;SDS011;63488;48.092;-1.640;2022-12-07T06:47:58;15.57;;;10.05;;
74926;SDS011;63488;48.092;-1.640;2022-12-07T06:50:24;12.48;;;9.00;;
74926;SDS011;63488;48.092;-1.640;2022-12-07T06:52:50;11.85;;;8.95;;
74926;SDS011;63488;48.092;-1.640;2022-12-07T06:55:15;12.35;;;8.25;;
74926;SDS011;63488;48.092;-1.640;2022-12-07T06:57:41;10.90;;;7.38;;
74926;SDS011;63488;48.092;-1.640;2022-12-07T07:00:06;10.57;;;7.20;;
74926;SDS011;63488;48.092;-1.640;2022-12-07T07:02:32;11.82;;;7.45;;
74926;SDS011;63488;48.092;-1.640;2022-12-07T07:04:57;9.13;;;6.60;;
74926;SDS011;63488;48.092;-1.640;2022-12-07T07:07:22;11.80;;;6.95;;
74926;SDS011;63488;48.092;-1.640;2022-12-07T07:09:48;8.85;;;6.72;;
74926;SDS011;63488;48.092;-1.640;2022-12-07T07:12:13;8.15;;;5.97;;
74926;SDS011;63488;48.092;-1.640;2022-12-07T07:14:38;8.40;;;6.38;;
74926;SDS011;63488;48.092;-1.640;2022-12-07T07:17:04;8.20;;;6.10;;
74926;SDS011;63488;48.092;-1.640;2022-12-07T07:19:29;8.63;;;6.45;;
74926;SDS011;63488;48.092;-1.640;2022-12-07T07:21:54;9.10;;;6.75;;
74926;SDS011;63488;48.092;-1.640;2022-12-07T07:24:20;9.68;;;6.35;;
74926;SDS011;63488;48.092;-1.640;2022-12-07T07:26:45;7.60;;;6.25;;
74926;SDS011;63488;48.092;-1.640;2022-12-07T07:29:10;9.43;;;6.07;;
74926;SDS011;63488;48.092;-1.640;2022-12-07T07:31:36;7.38;;;5.88;;
74926;SDS011;63488;48.092;-1.640;2022-12-07T07:34:02;8.75;;;6.32;;
74926;SDS011;63488;48.092;-1.640;2022-12-07T07:36:27;9.10;;;6.30;;
74926;SDS011;63488;48.092;-1.640;2022-12-07T07:38:52;9.57;;;6.63;;
74926;SDS011;63488;48.092;-1.640;2022-12-07T07:41:18;11.52;;;6.50;;
74926;SDS011;63488;48.092;-1.640;2022-12-07T07:43:43;7.65;;;6.07;;
74926;SDS011;63488;48.092;-1.640;2022-12-07T07:46:09;9.70;;;6.82;;
74926;SDS011;63488;48.092;-1.640;2022-12-07T07:48:34;8.63;;;6.13;;
74926;SDS011;63488;48.092;-1.640;2022-12-07T07:50:59;9.90;;;6.20;;
74926;SDS011;63488;48.092;-1.640;2022-12-07T07:53:25;7.90;;;5.78;;
74926;SDS011;63488;48.092;-1.640;2022-12-07T07:55:51;9.90;;;6.13;;
74926;SDS011;63488;48.092;-1.640;2022-12-07T07:58:17;8.32;;;6.18;;
74926;SDS011;63488;48.092;-1.640;2022-12-07T08:00:42;7.50;;;5.75;;
74926;SDS011;63488;48.092;-1.640;2022-12-07T08:03:08;9.80;;;5.78;;
74926;SDS011;63488;48.092;-1.640;2022-12-07T08:05:33;7.35;;;5.68;;
74926;SDS011;63488;48.092;-1.640;2022-12-07T08:07:58;8.65;;;6.10;;
74926;SDS011;63488;48.092;-1.640;2022-12-07T08:10:24;6.75;;;5.68;;
74926;SDS011;63488;48.092;-1.640;2022-12-07T08:12:49;7.72;;;5.93;;
74926;SDS011;63488;48.092;-1.640;2022-12-07T08:15:33;8.95;;;6.10;;
74926;SDS011;63488;48.092;-1.640;2022-12-07T08:18:01;8.15;;;6.57;;
74926;SDS011;63488;48.092;-1.640;2022-12-07T08:20:26;9.48;;;6.18;;
74926;SDS011;63488;48.092;-1.640;2022-12-07T08:22:51;9.40;;;6.88;;
74926;SDS011;63488;48.092;-1.640;2022-12-07T08:25:17;8.40;;;6.03;;
74926;SDS011;63488;48.092;-1.640;2022-12-07T08:27:43;9.73;;;6.10;;
74926;SDS011;63488;48.092;-1.640;2022-12-07T08:30:08;7.65;;;5.63;;
74926;SDS011;63488;48.092;-1.640;2022-12-07T08:32:33;7.97;;;6.35;;
74926;SDS011;63488;48.092;-1.640;2022-12-07T08:34:59;14.13;;;9.38;;
74926;SDS011;63488;48.092;-1.640;2022-12-07T08:37:24;13.57;;;9.55;;
74926;SDS011;63488;48.092;-1.640;2022-12-07T08:39:49;17.27;;;11.75;;
74926;SDS011;63488;48.092;-1.640;2022-12-07T08:42:15;18.80;;;11.55;;
74926;SDS011;63488;48.092;-1.640;2022-12-07T08:44:40;15.18;;;9.35;;
74926;SDS011;63488;48.092;-1.640;2022-12-07T08:47:05;18.40;;;11.85;;
74926;SDS011;63488;48.092;-1.640;2022-12-07T08:49:33;15.60;;;10.93;;
74926;SDS011;63488;48.092;-1.640;2022-12-07T08:52:00;16.00;;;10.32;;
74926;SDS011;63488;48.092;-1.640;2022-12-07T08:54:26;14.30;;;9.75;;
74926;SDS011;63488;48.092;-1.640;2022-12-07T08:56:53;17.23;;;11.95;;
74926;SDS011;63488;48.092;-1.640;2022-12-07T08:59:19;16.63;;;9.98;;
74926;SDS011;63488;48.092;-1.640;2022-12-07T09:01:46;11.80;;;8.52;;
74926;SDS011;63488;48.092;-1.640;2022-12-07T09:04:12;10.60;;;8.45;;
74926;SDS011;63488;48.092;-1.640;2022-12-07T09:06:38;10.85;;;7.82;;
74926;SDS011;63488;48.092;-1.640;2022-12-07T09:09:03;11.40;;;7.90;;
74926;SDS011;63488;48.092;-1.640;2022-12-07T09:11:30;10.40;;;6.82;;
74926;SDS011;63488;48.092;-1.640;2022-12-07T09:13:56;8.02;;;6.05;;
74926;SDS011;63488;48.092;-1.640;2022-12-07T09:16:21;35.20;;;11.38;;
74926;SDS011;63488;48.092;-1.640;2022-12-07T09:18:47;13.38;;;7.30;;
74926;SDS011;63488;48.092;-1.640;2022-12-07T09:21:12;9.93;;;7.32;;
74926;SDS011;63488;48.092;-1.640;2022-12-07T09:23:38;11.80;;;7.57;;
74926;SDS011;63488;48.092;-1.640;2022-12-07T09:26:04;11.88;;;8.50;;
74926;SDS011;63488;48.092;-1.640;2022-12-07T09:28:33;12.15;;;8.55;;
74926;SDS011;63488;48.092;-1.640;2022-12-07T09:30:59;13.98;;;8.75;;
74926;SDS011;63488;48.092;-1.640;2022-12-07T09:33:25;12.98;;;8.57;;
74926;SDS011;63488;48.092;-1.640;2022-12-07T09:35:51;10.48;;;7.88;;
74926;SDS011;63488;48.092;-1.640;2022-12-07T09:38:17;11.48;;;8.43;;
74926;SDS011;63488;48.092;-1.640;2022-12-07T09:40:43;11.63;;;8.43;;
74926;SDS011;63488;48.092;-1.640;2022-12-07T09:43:13;10.68;;;7.70;;
74926;SDS011;63488;48.092;-1.640;2022-12-07T09:48:04;12.87;;;7.87;;
74926;SDS011;63488;48.092;-1.640;2022-12-07T09:50:29;15.48;;;8.60;;
74926;SDS011;63488;48.092;-1.640;2022-12-07T09:53:09;12.52;;;7.65;;
74926;SDS011;63488;48.092;-1.640;2022-12-07T09:55:35;10.13;;;7.60;;
74926;SDS011;63488;48.092;-1.640;2022-12-07T09:58:01;11.52;;;7.55;;
74926;SDS011;63488;48.092;-1.640;2022-12-07T10:00:26;12.23;;;7.32;;
74926;SDS011;63488;48.092;-1.640;2022-12-07T10:02:57;10.20;;;6.68;;
74926;SDS011;63488;48.092;-1.640;2022-12-07T10:05:36;12.30;;;6.82;;
74926;SDS011;63488;48.092;-1.640;2022-12-07T10:08:02;8.98;;;6.00;;
74926;SDS011;63488;48.092;-1.640;2022-12-07T10:10:32;11.05;;;6.82;;
74926;SDS011;63488;48.092;-1.640;2022-12-07T10:13:00;9.75;;;7.30;;
74926;SDS011;63488;48.092;-1.640;2022-12-07T10:20:45;10.80;;;7.50;;
74926;SDS011;63488;48.092;-1.640;2022-12-07T10:23:14;11.65;;;7.85;;
74926;SDS011;63488;48.092;-1.640;2022-12-07T10:25:40;10.32;;;7.70;;
74926;SDS011;63488;48.092;-1.640;2022-12-07T10:30:33;14.23;;;8.98;;
74926;SDS011;63488;48.092;-1.640;2022-12-07T10:32:59;11.85;;;8.35;;
74926;SDS011;63488;48.092;-1.640;2022-12-07T10:35:26;14.40;;;7.90;;
74926;SDS011;63488;48.092;-1.640;2022-12-07T10:37:52;10.05;;;6.65;;
74926;SDS011;63488;48.092;-1.640;2022-12-07T10:40:31;10.70;;;6.85;;
74926;SDS011;63488;48.092;-1.640;2022-12-07T10:43:00;10.60;;;6.90;;
74926;SDS011;63488;48.092;-1.640;2022-12-07T10:45:26;8.98;;;6.80;;
74926;SDS011;63488;48.092;-1.640;2022-12-07T10:47:55;9.32;;;6.85;;
74926;SDS011;63488;48.092;-1.640;2022-12-07T10:55:33;7.93;;;5.78;;
74926;SDS011;63488;48.092;-1.640;2022-12-07T11:01:01;10.02;;;6.28;;
74926;SDS011;63488;48.092;-1.640;2022-12-07T11:11:38;13.25;;;7.47;;
74926;SDS011;63488;48.092;-1.640;2022-12-07T11:14:28;9.00;;;6.38;;
74926;SDS011;63488;48.092;-1.640;2022-12-07T11:16:57;9.03;;;6.40;;
74926;SDS011;63488;48.092;-1.640;2022-12-07T11:22:15;8.20;;;6.00;;
74926;SDS011;63488;48.092;-1.640;2022-12-07T11:24:50;11.13;;;7.20;;
74926;SDS011;63488;48.092;-1.640;2022-12-07T11:27:28;9.15;;;7.15;;
74926;SDS011;63488;48.092;-1.640;2022-12-07T11:37:47;21.25;;;13.15;;
74926;SDS011;63488;48.092;-1.640;2022-12-07T11:42:49;26.77;;;15.85;;
74926;SDS011;63488;48.092;-1.640;2022-12-07T11:45:19;29.05;;;16.48;;
74926;SDS011;63488;48.092;-1.640;2022-12-07T11:50:25;28.15;;;16.75;;
74926;SDS011;63488;48.092;-1.640;2022-12-07T11:52:53;29.65;;;16.88;;
74926;SDS011;63488;48.092;-1.640;2022-12-07T11:55:21;26.33;;;15.57;;
74926;SDS011;63488;48.092;-1.640;2022-12-07T11:57:51;20.95;;;13.02;;
74926;SDS011;63488;48.092;-1.640;2022-12-07T12:00:18;15.27;;;10.35;;
74926;SDS011;63488;48.092;-1.640;2022-12-07T12:02:46;13.20;;;9.70;;
74926;SDS011;63488;48.092;-1.640;2022-12-07T12:07:38;10.70;;;7.97;;
74926;SDS011;63488;48.092;-1.640;2022-12-07T12:10:05;12.10;;;7.85;;
74926;SDS011;63488;48.092;-1.640;2022-12-07T12:20:14;11.63;;;7.90;;
74926;SDS011;63488;48.092;-1.640;2022-12-07T12:22:43;10.73;;;7.85;;
74926;SDS011;63488;48.092;-1.640;2022-12-07T12:27:45;11.88;;;8.20;;
74926;SDS011;63488;48.092;-1.640;2022-12-07T12:33:04;11.07;;;8.30;;
74926;SDS011;63488;48.092;-1.640;2022-12-07T12:35:34;11.70;;;8.52;;
74926;SDS011;63488;48.092;-1.640;2022-12-07T12:42:55;14.02;;;8.23;;
74926;SDS011;63488;48.092;-1.640;2022-12-07T12:48:26;10.80;;;7.50;;
74926;SDS011;63488;48.092;-1.640;2022-12-07T12:50:46;9.98;;;7.35;;
74926;SDS011;63488;48.092;-1.640;2022-12-07T12:53:25;10.63;;;7.25;;
74926;SDS011;63488;48.092;-1.640;2022-12-07T13:00:49;11.38;;;8.68;;
74926;SDS011;63488;48.092;-1.640;2022-12-07T13:03:33;9.98;;;7.68;;
74926;SDS011;63488;48.092;-1.640;2022-12-07T13:08:43;10.52;;;7.78;;
74926;SDS011;63488;48.092;-1.640;2022-12-07T13:13:52;11.75;;;8.05;;
74926;SDS011;63488;48.092;-1.640;2022-12-07T13:18:43;9.13;;;6.22;;
74926;SDS011;63488;48.092;-1.640;2022-12-07T13:23:35;10.55;;;7.20;;
74926;SDS011;63488;48.092;-1.640;2022-12-07T13:28:39;9.25;;;7.22;;
74926;SDS011;63488;48.092;-1.640;2022-12-07T13:33:46;11.48;;;7.50;;
74926;SDS011;63488;48.092;-1.640;2022-12-07T13:36:15;10.82;;;7.35;;
74926;SDS011;63488;48.092;-1.640;2022-12-07T13:38:48;11.60;;;7.95;;
74926;SDS011;63488;48.092;-1.640;2022-12-07T13:41:17;10.35;;;7.68;;
74926;SDS011;63488;48.092;-1.640;2022-12-07T13:43:44;11.25;;;7.38;;
74926;SDS011;63488;48.092;-1.640;2022-12-07T13:46:10;12.77;;;7.57;;
74926;SDS011;63488;48.092;-1.640;2022-12-07T13:48:44;9.68;;;6.80;;
74926;SDS011;63488;48.092;-1.640;2022-12-07T13:51:16;10.40;;;7.38;;
74926;SDS011;63488;48.092;-1.640;2022-12-07T13:53:48;10.32;;;7.70;;
74926;SDS011;63488;48.092;-1.640;2022-12-07T13:56:14;14.38;;;7.75;;
74926;SDS011;63488;48.092;-1.640;2022-12-07T13:58:40;12.60;;;7.85;;
74926;SDS011;63488;48.092;-1.640;2022-12-07T14:01:06;10.00;;;7.65;;
74926;SDS011;63488;48.092;-1.640;2022-12-07T14:03:32;12.07;;;8.32;;
74926;SDS011;63488;48.092;-1.640;2022-12-07T14:06:13;11.52;;;8.38;;
74926;SDS011;63488;48.092;-1.640;2022-12-07T14:08:39;12.32;;;7.85;;
74926;SDS011;63488;48.092;-1.640;2022-12-07T14:11:05;14.80;;;7.97;;
74926;SDS011;63488;48.092;-1.640;2022-12-07T14:13:36;12.68;;;9.00;;
74926;SDS011;63488;48.092;-1.640;2022-12-07T14:18:38;13.88;;;9.20;;
74926;SDS011;63488;48.092;-1.640;2022-12-07T14:23:37;12.30;;;9.05;;
74926;SDS011;63488;48.092;-1.640;2022-12-07T14:26:12;17.63;;;9.13;;
74926;SDS011;63488;48.092;-1.640;2022-12-07T14:28:40;17.85;;;9.02;;
74926;SDS011;63488;48.092;-1.640;2022-12-07T14:31:24;11.15;;;8.93;;
74926;SDS011;63488;48.092;-1.640;2022-12-07T14:33:50;15.10;;;9.25;;
74926;SDS011;63488;48.092;-1.640;2022-12-07T14:36:15;12.50;;;8.93;;
74926;SDS011;63488;48.092;-1.640;2022-12-07T14:38:41;13.70;;;9.50;;
74926;SDS011;63488;48.092;-1.640;2022-12-07T14:41:14;13.75;;;8.98;;
74926;SDS011;63488;48.092;-1.640;2022-12-07T14:43:58;12.80;;;8.60;;
74926;SDS011;63488;48.092;-1.640;2022-12-07T14:46:24;12.40;;;8.60;;
74926;SDS011;63488;48.092;-1.640;2022-12-07T14:48:49;13.40;;;9.38;;
74926;SDS011;63488;48.092;-1.640;2022-12-07T14:51:15;13.77;;;9.45;;
74926;SDS011;63488;48.092;-1.640;2022-12-07T14:53:43;12.45;;;9.18;;
74926;SDS011;63488;48.092;-1.640;2022-12-07T14:56:09;12.82;;;9.60;;
74926;SDS011;63488;48.092;-1.640;2022-12-07T14:58:34;13.25;;;9.50;;
74926;SDS011;63488;48.092;-1.640;2022-12-07T15:01:00;15.05;;;8.93;;
74926;SDS011;63488;48.092;-1.640;2022-12-07T15:03:26;14.77;;;9.18;;
74926;SDS011;63488;48.092;-1.640;2022-12-07T15:05:51;13.20;;;8.88;;
74926;SDS011;63488;48.092;-1.640;2022-12-07T15:08:17;14.18;;;9.00;;
74926;SDS011;63488;48.092;-1.640;2022-12-07T15:10:43;11.73;;;8.73;;
74926;SDS011;63488;48.092;-1.640;2022-12-07T15:13:08;13.82;;;9.00;;
74926;SDS011;63488;48.092;-1.640;2022-12-07T15:15:54;13.77;;;9.55;;
74926;SDS011;63488;48.092;-1.640;2022-12-07T15:18:20;14.02;;;9.25;;
74926;SDS011;63488;48.092;-1.640;2022-12-07T15:20:46;18.90;;;10.38;;
74926;SDS011;63488;48.092;-1.640;2022-12-07T15:23:11;21.90;;;10.13;;
74926;SDS011;63488;48.092;-1.640;2022-12-07T15:25:40;14.60;;;9.63;;
74926;SDS011;63488;48.092;-1.640;2022-12-07T15:28:05;15.55;;;10.52;;
74926;SDS011;63488;48.092;-1.640;2022-12-07T15:30:31;13.52;;;9.60;;
74926;SDS011;63488;48.092;-1.640;2022-12-07T15:32:56;14.80;;;9.88;;
74926;SDS011;63488;48.092;-1.640;2022-12-07T15:35:21;14.00;;;9.82;;
74926;SDS011;63488;48.092;-1.640;2022-12-07T15:37:47;18.27;;;10.10;;
74926;SDS011;63488;48.092;-1.640;2022-12-07T15:40:12;18.42;;;10.00;;
74926;SDS011;63488;48.092;-1.640;2022-12-07T15:42:38;17.55;;;10.35;;
74926;SDS011;63488;48.092;-1.640;2022-12-07T15:45:04;16.38;;;9.80;;
74926;SDS011;63488;48.092;-1.640;2022-12-07T15:47:30;13.98;;;9.48;;
74926;SDS011;63488;48.092;-1.640;2022-12-07T15:49:56;20.23;;;10.50;;
74926;SDS011;63488;48.092;-1.640;2022-12-07T15:52:21;14.73;;;9.85;;
74926;SDS011;63488;48.092;-1.640;2022-12-07T15:54:46;16.85;;;10.23;;
74926;SDS011;63488;48.092;-1.640;2022-12-07T15:57:12;14.73;;;9.43;;
74926;SDS011;63488;48.092;-1.640;2022-12-07T15:59:39;12.82;;;9.57;;
74926;SDS011;63488;48.092;-1.640;2022-12-07T16:02:05;17.35;;;10.10;;
74926;SDS011;63488;48.092;-1.640;2022-12-07T16:04:30;14.60;;;9.65;;
74926;SDS011;63488;48.092;-1.640;2022-12-07T16:06:56;14.32;;;10.50;;
74926;SDS011;63488;48.092;-1.640;2022-12-07T16:09:21;17.75;;;10.00;;
74926;SDS011;63488;48.092;-1.640;2022-12-07T16:11:47;13.55;;;9.02;;
74926;SDS011;63488;48.092;-1.640;2022-12-07T16:14:12;15.43;;;9.85;;
74926;SDS011;63488;48.092;-1.640;2022-12-07T16:16:38;12.20;;;9.30;;
74926;SDS011;63488;48.092;-1.640;2022-12-07T16:19:05;15.75;;;9.70;;